PENO2: Grand Lake O' The Cherokees, Pensacola Dm

Data processed at Thu May 23 2019 23:50


All information presented herein is the property of the government of the United States of America and may be revised or deleted at any time without prior notice.
Dissemination of this information without the expressed written consent of the Public Affairs Office, Tulsa District U.S. Army Corps of Engineers is strictly prohibited.
These data are gathered electronically and, as presented, have not undergone any form of quality control. These data are not guaranteed to be valid or correct.
Go to home page.
Go to station list.
Go to home page.

Upstream stations:

Downstream station:
Previous Day
Next Day
Current Day
    
SHEF ID:       PENO2     Pensacola (Grand Lake)
STATION TYPE:  RESERVOIR
Flood Pool:  Bottom =   743.48, Top =   755.00

               PRECIP ELEVATION   STORAGE    INFLOW   RELEASE  AIR-TEMP  WIND-DIRWIND-SPEED REL-HUMID SOLAR-RAD   VOLTAGE  BAT-LOAD
                   in        ft     ac-ft       cfs       cfs         F       deg       mph         %      W/m2      volt      volt
              Ccp-Rev   Ccp-Rev   Ccp-Rev  Rev-Regi  Rev-Regi   Ccp-Rev   Ccp-Rev   Ccp-Rev   Ccp-Rev   Ccp-Rev   Ccp-Rev   Ccp-Rev
(US/Central)
05/23 00:00      0.03    754.83   2011755    153171    141905     73.42    149.84      2.52     90.30      0.01     12.76     12.57
05/23 01:00      0.01    754.82   2011170    149037    142083     75.15    166.05      3.63     87.04      0.00     12.75     12.57
05/23 02:00      0.00    754.82   2011170    174805    142037     74.03    262.39      5.12     88.93      0.00     12.74     12.49
05/23 03:00      0.00    754.83   2011755    162652    142079     72.12    305.86      6.58     87.41      0.00     12.72     12.49
05/23 04:00      0.05    755.01   2022302    167951    142913     71.22    116.69      2.76     91.82      0.00     12.71     12.49
05/23 05:00      0.00    754.96   2019360    176389    152131     71.24    309.27      2.66     94.06      0.00     12.71     12.49
05/23 06:00      0.00    754.95   2018775    181975    168576     70.07    312.30      1.69     97.27      0.00     12.70     12.49
05/23 07:00      0.00    754.96   2019360    157580    177149     71.46    322.69      1.51     97.23      0.08     12.69     12.49
05/23 08:00      0.00    754.96   2019360    170148    177085     73.27    163.13      1.51     92.91     26.72     12.68     12.41
05/23 09:00      0.00    754.92   2017020    171508    176870     76.68    151.08      3.00     85.52    110.95     12.67     12.41
05/23 10:00      0.00    754.91   2016435    171107    186450     78.73    155.48      4.90     79.91    358.55     12.67     12.41
05/23 11:00      0.00    754.88   2014680    176393    189537     80.60    155.51      5.09     73.99    554.38     12.66     12.41
05/23 12:00      0.00    754.87   2014095    185273    189300     82.06    162.01      5.21     70.02    652.09     12.67     12.41
05/23 13:00      0.00    754.89   2015265    181535    189359     83.32    163.11      5.42     66.18    738.23     12.67     12.41
05/23 14:00      0.00    754.90   2015850    182821    185874     84.11    164.66      5.21     64.40    735.18     12.67     12.41
05/23 15:00      0.00    754.88   2014680    185601    174839     84.74    173.09      4.54     64.11    715.56     12.67     12.41
05/23 16:00      0.00    754.88   2014680    179909    174730     85.15    164.83      5.21     60.90    664.01     13.34     13.05
05/23 17:00      0.00    754.91   2016435    173476    174890     85.41    167.48      4.62     58.76    535.38     13.47     13.05
05/23 18:00      0.00    754.91   2016435    184865    175052     85.32    169.76      4.59     56.67    421.47     13.53     12.97
05/23 19:00      0.00    754.89   2015265    186442    174945     84.69    168.55      4.17     56.18    245.13     13.51     12.89
05/23 20:00      0.00    754.95   2018775    178056    175157     83.12    156.65      2.75     60.73     79.30     13.46     12.89
05/23 21:00      0.00    754.96   2019360    182355    175539     79.63    170.10      1.25     69.71      0.01     14.61     12.89
05/23 22:00      0.00    754.93   2017605    181036    175429     75.16    285.48      0.21     82.32      0.00     12.88     12.65
05/23 23:00      0.00    754.95   2018775    185290    182389     73.11     26.72      0.21     87.83      0.00     12.84     12.65